Time;durP1;ratioP1;P1;durP2;ratioP2;P2;SDS_P1;SDS_P2;PMS_P1;PMS_P2;Temp;Humidity;BMP_temperature;BMP_pressure;BME280_temperature;BME280_humidity;BME280_pressure;Samples;Min_cycle;Max_cycle;Signal;HPM_P1;HPM_P2
2020/12/03 00:00:59;;;;;;;67.83;37.87;;;1.30;99.90;;;;;;4976469;28;20322;-62
2020/12/03 00:03:48;;;;;;;64.73;38.97;;;1.40;99.90;;;;;;4980114;28;20266;-61
2020/12/03 00:06:37;;;;;;;62.03;38.73;;;1.40;99.90;;;;;;4980450;28;20200;-62
2020/12/03 00:09:05;;;;;;;63.67;36.87;;;1.40;99.90;;;;;;4978170;28;20668;-62
2020/12/03 00:11:33;;;;;;;46.20;26.83;;;1.30;99.90;;;;;;4978605;28;20199;-63
2020/12/03 00:13:59;;;;;;;60.50;37.50;;;1.30;99.90;;;;;;4980006;28;20270;-62
2020/12/03 00:16:30;;;;;;;58.77;33.20;;;1.30;99.90;;;;;;4980283;28;20602;-63
2020/12/03 00:18:56;;;;;;;56.50;33.70;;;1.30;99.90;;;;;;4980222;28;20192;-62
2020/12/03 00:21:36;;;;;;;61.00;36.03;;;1.30;99.90;;;;;;4977228;28;20200;-62
2020/12/03 00:24:03;;;;;;;58.00;33.27;;;1.40;99.90;;;;;;4979328;28;20203;-62
2020/12/03 00:26:30;;;;;;;59.20;34.37;;;1.40;99.90;;;;;;4979972;28;20200;-62
2020/12/03 00:28:57;;;;;;;61.13;36.40;;;1.40;99.90;;;;;;4979298;28;20295;-62
2020/12/03 00:31:23;;;;;;;62.93;37.93;;;1.50;99.90;;;;;;4977722;28;20283;-64
2020/12/03 00:33:49;;;;;;;51.70;30.90;;;1.40;99.90;;;;;;4979578;28;20196;-64
2020/12/03 00:36:15;;;;;;;55.53;30.93;;;1.40;99.90;;;;;;4980024;28;20182;-63
2020/12/03 00:38:40;;;;;;;53.87;30.70;;;1.40;99.90;;;;;;4979812;28;20176;-63
2020/12/03 00:41:06;;;;;;;57.63;36.13;;;1.40;99.90;;;;;;4979214;28;20257;-62
2020/12/03 00:43:32;;;;;;;56.47;33.83;;;1.40;99.90;;;;;;4979501;28;20536;-63
2020/12/03 00:45:57;;;;;;;57.43;31.67;;;1.40;99.90;;;;;;4979486;28;20587;-63
2020/12/03 00:48:23;;;;;;;64.27;35.13;;;1.40;99.90;;;;;;4978883;28;20172;-62
2020/12/03 00:50:48;;;;;;;61.27;34.23;;;1.40;99.90;;;;;;4978963;28;20730;-63
2020/12/03 00:53:15;;;;;;;56.80;35.53;;;1.40;99.90;;;;;;4976973;28;20180;-63
2020/12/03 00:55:40;;;;;;;54.97;33.40;;;1.40;99.90;;;;;;4976097;28;20180;-63
2020/12/03 00:58:06;;;;;;;60.93;36.17;;;1.40;99.90;;;;;;4991083;28;20179;-63
2020/12/03 01:00:32;;;;;;;61.63;37.27;;;1.40;99.90;;;;;;4990503;28;20214;-63
2020/12/03 01:02:58;;;;;;;66.40;35.80;;;1.40;99.90;;;;;;4991033;28;20171;-62
2020/12/03 01:05:23;;;;;;;60.83;35.37;;;1.30;99.90;;;;;;4990100;28;20195;-62
2020/12/03 01:07:49;;;;;;;52.13;30.37;;;1.40;99.90;;;;;;4993703;28;20678;-62
2020/12/03 01:10:28;;;;;;;52.50;31.77;;;1.40;99.90;;;;;;4993799;28;20199;-62
2020/12/03 01:12:54;;;;;;;51.07;29.77;;;1.20;99.90;;;;;;4994951;28;20215;-63
2020/12/03 01:15:20;;;;;;;59.90;32.90;;;1.20;99.90;;;;;;4994930;28;20183;-63
2020/12/03 01:17:46;;;;;;;62.77;34.37;;;1.10;99.90;;;;;;4994791;28;20184;-63
2020/12/03 01:20:14;;;;;;;56.43;31.63;;;1.10;99.90;;;;;;4994538;28;20182;-64
2020/12/03 01:22:40;;;;;;;61.37;33.73;;;1.10;99.90;;;;;;4994311;28;20210;-63
2020/12/03 01:25:07;;;;;;;51.50;28.83;;;1.00;99.90;;;;;;4994485;28;20623;-63
2020/12/03 01:27:32;;;;;;;41.60;24.33;;;0.90;99.90;;;;;;4985200;28;20201;-62
2020/12/03 01:29:58;;;;;;;62.00;32.70;;;0.90;99.90;;;;;;4983045;28;20192;-62
2020/12/03 01:32:24;;;;;;;60.73;34.93;;;0.80;99.90;;;;;;4982560;28;20212;-64
2020/12/03 01:34:49;;;;;;;61.83;35.20;;;0.80;99.90;;;;;;4983212;28;20195;-64
2020/12/03 01:37:17;;;;;;;62.40;32.17;;;0.80;99.90;;;;;;4983172;28;20176;-63
2020/12/03 01:39:43;;;;;;;62.60;32.93;;;0.80;99.90;;;;;;4982075;28;20641;-64
2020/12/03 01:42:09;;;;;;;53.00;27.20;;;0.90;99.90;;;;;;4974422;28;20204;-61
2020/12/03 11:51:45;;;;;;;63.33;29.90;;;0.50;99.90;;;;;;5123792;27;21251;-69
2020/12/03 11:54:10;;;;;;;42.97;20.87;;;0.50;99.90;;;;;;5129490;28;20167;-69
2020/12/03 11:56:37;;;;;;;48.33;23.43;;;0.50;99.90;;;;;;5129612;28;20167;-70
2020/12/03 11:59:20;;;;;;;59.37;27.47;;;0.50;99.90;;;;;;5128674;28;20187;-69
2020/12/03 12:01:53;;;;;;;59.33;31.73;;;0.50;99.90;;;;;;5114756;28;20181;-69
2020/12/03 12:04:22;;;;;;;55.60;27.17;;;0.60;99.90;;;;;;5125047;22;20188;-70
2020/12/03 12:07:04;;;;;;;50.23;23.63;;;0.50;99.90;;;;;;5085381;28;20184;-70
2020/12/03 12:09:40;;;;;;;35.47;20.43;;;0.60;99.90;;;;;;5086300;28;20601;-69
2020/12/03 12:12:06;;;;;;;52.87;28.07;;;0.60;99.90;;;;;;5086877;28;20545;-70
2020/12/03 12:14:32;;;;;;;53.77;23.93;;;0.60;99.90;;;;;;5093560;28;20201;-69
2020/12/03 12:16:57;;;;;;;50.70;28.63;;;0.60;99.90;;;;;;5108049;28;20638;-69
2020/12/03 12:19:25;;;;;;;55.77;26.73;;;0.70;99.90;;;;;;5104886;28;20180;-70
2020/12/03 12:21:52;;;;;;;40.33;19.63;;;0.70;99.90;;;;;;5105548;28;20670;-70
2020/12/03 12:24:18;;;;;;;52.57;26.97;;;0.70;99.90;;;;;;5106535;28;20184;-69
2020/12/03 12:26:43;;;;;;;53.67;28.10;;;0.70;99.90;;;;;;5103911;28;20240;-69
2020/12/03 12:29:09;;;;;;;55.07;28.03;;;0.70;99.90;;;;;;5105943;28;20179;-69
2020/12/03 12:31:34;;;;;;;54.67;25.87;;;0.80;99.90;;;;;;5105926;28;20199;-69
2020/12/03 12:34:00;;;;;;;54.40;26.90;;;0.90;99.90;;;;;;5106306;28;20255;-68
2020/12/03 12:36:25;;;;;;;57.67;28.07;;;0.90;99.90;;;;;;5104704;28;20184;-68
2020/12/03 12:38:51;;;;;;;53.77;29.13;;;1.00;99.90;;;;;;5105363;28;20525;-69
2020/12/03 12:41:17;;;;;;;53.73;27.73;;;1.00;99.90;;;;;;5105982;28;20228;-68
2020/12/03 12:43:42;;;;;;;53.93;27.20;;;1.00;99.90;;;;;;5104044;28;20564;-70
2020/12/03 12:46:08;;;;;;;55.40;28.33;;;1.00;99.90;;;;;;5104853;28;20195;-70
2020/12/03 12:48:33;;;;;;;61.23;33.20;;;0.90;99.90;;;;;;5102917;28;20180;-72
2020/12/03 12:50:59;;;;;;;58.53;32.50;;;1.00;99.90;;;;;;5103481;28;20230;-71
2020/12/03 12:53:24;;;;;;;51.40;26.47;;;1.00;99.90;;;;;;5105363;28;20203;-73
2020/12/03 12:55:50;;;;;;;55.07;31.70;;;1.00;99.90;;;;;;5101936;28;20488;-71
2020/12/03 12:58:15;;;;;;;33.83;17.37;;;0.90;99.90;;;;;;5103697;28;20176;-71
2020/12/03 13:00:41;;;;;;;38.93;20.97;;;0.90;99.90;;;;;;5103203;28;20642;-71
2020/12/03 13:03:06;;;;;;;48.77;23.90;;;0.80;99.90;;;;;;5090221;28;20176;-70
2020/12/03 13:05:32;;;;;;;55.37;29.13;;;0.90;99.90;;;;;;5089821;28;20220;-70
2020/12/03 13:07:58;;;;;;;49.87;29.47;;;0.80;99.90;;;;;;5091602;28;20172;-71
2020/12/03 13:10:23;;;;;;;48.63;26.43;;;0.80;99.90;;;;;;5091258;28;20188;-72
2020/12/03 13:12:48;;;;;;;60.37;34.23;;;0.80;99.90;;;;;;5090031;28;20336;-69
2020/12/03 13:15:14;;;;;;;46.63;24.07;;;0.80;99.90;;;;;;5089906;28;20249;-70
2020/12/03 13:17:41;;;;;;;34.63;18.53;;;0.80;99.90;;;;;;5089523;28;20263;-71
2020/12/03 13:20:07;;;;;;;56.13;29.17;;;0.80;99.90;;;;;;5091639;28;20251;-71
2020/12/03 13:22:32;;;;;;;57.13;29.30;;;0.80;99.90;;;;;;5091138;28;20299;-71
2020/12/03 13:24:58;;;;;;;53.13;26.97;;;0.80;99.90;;;;;;5091505;28;20689;-71
2020/12/03 13:27:23;;;;;;;45.33;25.67;;;0.80;99.90;;;;;;5089886;28;20267;-71
2020/12/03 13:29:49;;;;;;;62.13;33.13;;;0.80;99.90;;;;;;5089656;28;20265;-71
2020/12/03 13:32:14;;;;;;;39.90;19.50;;;0.80;99.90;;;;;;5089828;28;20652;-71
2020/12/03 13:34:40;;;;;;;62.67;36.27;;;0.80;99.90;;;;;;5091418;28;20191;-71
2020/12/03 13:37:05;;;;;;;54.70;29.17;;;0.80;99.90;;;;;;5090898;28;20227;-71
2020/12/03 13:39:31;;;;;;;26.87;15.60;;;0.80;99.90;;;;;;5091185;28;20687;-70
2020/12/03 13:41:57;;;;;;;64.03;32.77;;;0.80;99.90;;;;;;5089756;28;20176;-70
2020/12/03 13:44:22;;;;;;;48.07;23.97;;;0.80;99.90;;;;;;5091184;28;20498;-70
2020/12/03 13:46:48;;;;;;;50.93;26.00;;;0.70;99.90;;;;;;5088625;28;20259;-70
2020/12/03 13:49:15;;;;;;;46.23;23.50;;;0.70;99.90;;;;;;5090717;28;20241;-71
2020/12/03 13:51:41;;;;;;;45.50;22.60;;;0.80;99.90;;;;;;5086541;28;20326;-70
2020/12/03 13:54:07;;;;;;;55.33;26.23;;;0.70;99.90;;;;;;5086269;28;20483;-71
2020/12/03 13:56:33;;;;;;;36.90;19.03;;;0.70;99.90;;;;;;5088105;28;20188;-70
2020/12/03 13:58:58;;;;;;;53.50;27.77;;;0.80;99.90;;;;;;5077337;28;20274;-73
2020/12/03 14:01:25;;;;;;;57.13;30.60;;;0.80;99.90;;;;;;5088428;28;20212;-65
2020/12/03 14:03:51;;;;;;;43.40;22.17;;;0.80;99.90;;;;;;5090932;28;20180;-65
2020/12/03 14:06:17;;;;;;;32.90;16.83;;;0.70;99.90;;;;;;5092156;28;20230;-65
2020/12/03 14:08:43;;;;;;;50.57;26.30;;;0.70;99.90;;;;;;5092808;28;20164;-65
2020/12/03 14:11:09;;;;;;;50.47;26.60;;;0.70;99.90;;;;;;5091608;28;20208;-64
2020/12/03 14:13:35;;;;;;;36.87;19.13;;;0.80;99.90;;;;;;5091297;28;20203;-64
2020/12/03 14:16:00;;;;;;;57.83;30.60;;;0.80;99.90;;;;;;5092188;28;20216;-65
2020/12/03 14:18:26;;;;;;;30.93;14.50;;;0.70;99.90;;;;;;5093877;28;20161;-65
2020/12/03 14:20:51;;;;;;;35.37;19.23;;;0.80;99.90;;;;;;5092097;28;20628;-65
2020/12/03 14:23:17;;;;;;;47.40;24.60;;;0.80;99.90;;;;;;5092153;28;20180;-65
2020/12/03 14:25:42;;;;;;;49.23;25.53;;;0.70;99.90;;;;;;5091953;28;20219;-65
2020/12/03 14:28:08;;;;;;;43.83;22.63;;;0.70;99.90;;;;;;5091876;28;20187;-64
2020/12/03 14:30:33;;;;;;;27.60;14.80;;;0.70;99.90;;;;;;5092056;28;20739;-64
2020/12/03 14:32:59;;;;;;;41.17;21.57;;;0.70;99.90;;;;;;5092316;28;20191;-65
2020/12/03 14:35:24;;;;;;;63.10;34.90;;;0.70;99.90;;;;;;5091974;28;20563;-64
2020/12/03 14:37:51;;;;;;;60.07;29.80;;;0.70;99.90;;;;;;5091867;28;20273;-64
2020/12/03 14:40:17;;;;;;;56.33;29.57;;;0.70;99.90;;;;;;5092041;28;20179;-66
2020/12/03 14:42:43;;;;;;;60.50;31.70;;;0.70;99.90;;;;;;5092042;28;20173;-64
2020/12/03 14:45:11;;;;;;;41.50;20.93;;;0.70;99.90;;;;;;5092410;28;20636;-65
2020/12/03 14:47:38;;;;;;;55.40;28.50;;;0.70;99.90;;;;;;5092121;28;20167;-65
2020/12/03 14:50:08;;;;;;;59.77;34.17;;;0.70;99.90;;;;;;5091319;28;20254;-65
2020/12/03 14:52:34;;;;;;;60.70;31.90;;;0.70;99.90;;;;;;5091389;28;20207;-65
2020/12/03 14:55:00;;;;;;;60.73;31.57;;;0.70;99.90;;;;;;5091656;28;20196;-65
2020/12/03 14:57:27;;;;;;;55.93;30.13;;;0.70;99.90;;;;;;5091663;28;20528;-64
2020/12/03 14:59:52;;;;;;;44.93;22.50;;;0.80;99.90;;;;;;5091612;28;20179;-64
2020/12/03 15:02:19;;;;;;;52.03;27.27;;;0.70;99.90;;;;;;5091168;28;20172;-65
2020/12/03 15:04:46;;;;;;;59.00;29.20;;;0.70;99.90;;;;;;5090977;28;20208;-64
2020/12/03 15:07:11;;;;;;;58.97;32.07;;;0.70;99.90;;;;;;5091484;28;20632;-64
2020/12/03 15:09:37;;;;;;;35.63;19.60;;;0.70;99.90;;;;;;5090854;28;20215;-64
2020/12/03 15:12:06;;;;;;;38.93;20.40;;;0.70;99.90;;;;;;5090756;28;20161;-64
2020/12/03 15:14:32;;;;;;;52.83;28.97;;;0.70;99.90;;;;;;5091153;28;20221;-64
2020/12/03 15:16:57;;;;;;;42.10;20.60;;;0.80;99.90;;;;;;5091124;28;20196;-64
2020/12/03 15:19:23;;;;;;;55.40;27.93;;;0.80;99.90;;;;;;5091050;28;20173;-64
2020/12/03 15:21:48;;;;;;;47.97;25.80;;;0.80;99.90;;;;;;5091031;28;20173;-65
2020/12/03 15:24:13;;;;;;;57.30;30.00;;;0.80;99.90;;;;;;5091008;28;20172;-64
2020/12/03 15:26:39;;;;;;;30.57;17.50;;;0.90;99.90;;;;;;5091422;28;20172;-64
2020/12/03 15:29:04;;;;;;;57.03;30.20;;;0.80;99.90;;;;;;5090912;28;20187;-64
2020/12/03 15:31:30;;;;;;;57.20;30.33;;;0.80;99.90;;;;;;5090506;28;20452;-64
2020/12/03 15:33:55;;;;;;;52.97;28.50;;;0.80;99.90;;;;;;5090591;28;20202;-64
2020/12/03 15:36:21;;;;;;;55.53;27.57;;;0.80;99.90;;;;;;5093373;28;20194;-64
2020/12/03 15:38:46;;;;;;;40.63;22.17;;;0.80;99.90;;;;;;5095022;28;20414;-65
2020/12/03 15:41:12;;;;;;;50.83;27.13;;;0.80;99.90;;;;;;5090992;28;20258;-65
2020/12/03 15:43:37;;;;;;;50.57;28.67;;;0.80;99.90;;;;;;5091303;28;20172;-65
2020/12/03 15:46:03;;;;;;;58.57;31.70;;;0.70;99.90;;;;;;5091051;28;20192;-65
2020/12/03 15:48:33;;;;;;;55.27;26.80;;;0.70;99.90;;;;;;5090990;28;20180;-65
2020/12/03 15:51:01;;;;;;;57.73;34.43;;;0.70;99.90;;;;;;5090717;28;20200;-65
2020/12/03 15:53:26;;;;;;;33.10;18.20;;;0.70;99.90;;;;;;5086945;28;20189;-65
2020/12/03 15:55:52;;;;;;;58.23;29.97;;;0.80;99.90;;;;;;5090821;28;20698;-66
2020/12/03 15:58:18;;;;;;;44.33;23.77;;;0.70;99.90;;;;;;5089110;28;20625;-65
2020/12/03 16:04:05;;;;;;;43.70;22.77;;;0.80;99.90;;;;;;5091022;28;20651;-68
2020/12/03 16:06:31;;;;;;;51.90;25.00;;;0.80;99.90;;;;;;5090887;28;20203;-69
2020/12/03 16:08:56;;;;;;;53.93;28.40;;;0.80;99.90;;;;;;5084610;28;20192;-60
2020/12/03 16:11:24;;;;;;;46.40;24.63;;;0.80;99.90;;;;;;5085722;28;20468;-61
2020/12/03 16:13:50;;;;;;;38.97;20.20;;;0.80;99.90;;;;;;5081717;28;20640;-61
2020/12/03 16:16:15;;;;;;;47.17;26.47;;;0.80;99.90;;;;;;5090218;28;20188;-60
2020/12/03 16:18:41;;;;;;;58.77;29.00;;;0.80;99.90;;;;;;5072106;28;20212;-62
2020/12/03 16:21:06;;;;;;;34.50;16.77;;;0.80;99.90;;;;;;5075394;28;20185;-61
2020/12/03 16:26:54;;;;;;;56.30;31.17;;;0.80;99.90;;;;;;5084107;28;20183;-60
2020/12/03 16:29:20;;;;;;;64.57;32.53;;;0.70;99.90;;;;;;5089757;28;20180;-59
2020/12/03 16:31:45;;;;;;;34.97;19.27;;;0.70;99.90;;;;;;5088231;28;20266;-60
2020/12/03 16:34:12;;;;;;;51.17;25.27;;;0.70;99.90;;;;;;5090273;28;20306;-60
2020/12/03 16:36:40;;;;;;;55.73;29.23;;;0.60;99.90;;;;;;5090820;28;20165;-60
2020/12/03 16:39:08;;;;;;;37.53;20.40;;;0.60;99.90;;;;;;5093965;28;20539;-60
2020/12/03 16:41:34;;;;;;;35.87;17.23;;;0.50;99.90;;;;;;5092790;28;20188;-60
2020/12/03 16:43:59;;;;;;;52.23;27.03;;;0.50;99.90;;;;;;5094165;28;20464;-60
2020/12/03 16:46:25;;;;;;;45.57;23.80;;;0.50;99.90;;;;;;5093919;28;20609;-60
2020/12/03 16:48:52;;;;;;;41.80;22.23;;;0.40;99.90;;;;;;5093819;28;20180;-60
2020/12/03 16:51:19;;;;;;;46.50;24.67;;;0.40;99.90;;;;;;5074661;28;20285;-60
2020/12/03 16:53:45;;;;;;;37.63;18.83;;;0.30;99.90;;;;;;5093039;28;20560;-58
2020/12/03 16:56:19;;;;;;;43.77;22.63;;;0.30;99.90;;;;;;5092891;28;20200;-59
2020/12/03 16:58:45;;;;;;;56.57;28.73;;;0.30;99.90;;;;;;5093748;28;20168;-59
2020/12/03 17:01:10;;;;;;;52.90;26.17;;;0.30;99.90;;;;;;5093511;28;20172;-59
2020/12/03 17:03:36;;;;;;;35.20;18.60;;;0.30;99.90;;;;;;5092916;28;20668;-59
2020/12/03 17:06:02;;;;;;;45.07;22.77;;;0.30;99.90;;;;;;5093395;28;20223;-60
2020/12/03 17:08:28;;;;;;;58.47;32.20;;;0.20;99.90;;;;;;5092714;28;20187;-59
2020/12/03 17:10:54;;;;;;;41.37;21.13;;;0.30;99.90;;;;;;5093059;28;20703;-59
2020/12/03 17:13:19;;;;;;;39.83;21.17;;;0.30;99.90;;;;;;5092411;28;20172;-60
2020/12/03 17:15:45;;;;;;;56.83;26.57;;;0.30;99.90;;;;;;5093175;28;20188;-58
2020/12/03 17:18:10;;;;;;;40.63;19.33;;;0.30;99.90;;;;;;5091755;28;20554;-59
2020/12/03 17:20:36;;;;;;;47.47;23.90;;;0.30;99.90;;;;;;5093051;28;20165;-59
2020/12/03 17:23:01;;;;;;;46.47;24.07;;;0.40;99.90;;;;;;5093260;28;20172;-60
2020/12/03 17:25:27;;;;;;;62.90;31.90;;;0.30;99.90;;;;;;5092886;28;20656;-59
2020/12/03 17:27:52;;;;;;;45.97;25.27;;;0.30;99.90;;;;;;5092491;28;20267;-59
2020/12/03 17:30:18;;;;;;;59.67;27.20;;;0.30;99.90;;;;;;5093021;28;20211;-59
2020/12/03 17:32:43;;;;;;;57.13;30.43;;;0.30;99.90;;;;;;5093006;28;20187;-60
2020/12/03 17:35:09;;;;;;;48.93;23.57;;;0.30;99.90;;;;;;5093227;28;20268;-60
2020/12/03 17:37:38;;;;;;;52.17;26.80;;;0.40;99.90;;;;;;5090999;28;20181;-60
2020/12/03 17:40:09;;;;;;;56.33;28.60;;;0.40;99.90;;;;;;5092876;28;20172;-60
2020/12/03 17:42:34;;;;;;;57.20;25.77;;;0.40;99.90;;;;;;5091514;28;20616;-60
2020/12/03 17:45:03;;;;;;;53.77;30.90;;;0.40;99.90;;;;;;5092805;28;20280;-60
2020/12/03 17:47:29;;;;;;;59.27;31.13;;;0.40;99.90;;;;;;5091629;28;20181;-60
2020/12/03 17:49:55;;;;;;;57.30;30.80;;;0.40;99.90;;;;;;5089393;28;20279;-60
2020/12/03 17:52:21;;;;;;;50.03;27.37;;;0.50;99.90;;;;;;5091598;28;20264;-60
2020/12/03 17:54:46;;;;;;;55.17;26.10;;;0.50;99.90;;;;;;5091849;28;20236;-60
2020/12/03 17:57:12;;;;;;;63.93;35.17;;;0.50;99.90;;;;;;5092533;28;20161;-60
2020/12/03 17:59:37;;;;;;;55.93;28.30;;;0.60;99.90;;;;;;5074198;28;20219;-59
2020/12/03 18:02:04;;;;;;;55.07;27.00;;;0.50;99.90;;;;;;5093014;28;20179;-59
2020/12/03 18:06:57;;;;;;;60.83;32.37;;;0.60;99.90;;;;;;5047993;28;20205;-60
2020/12/03 18:09:24;;;;;;;48.53;24.50;;;0.60;99.90;;;;;;5050228;28;20186;-61
2020/12/03 18:11:50;;;;;;;58.73;27.57;;;0.60;99.90;;;;;;5050959;28;20723;-60
2020/12/03 18:14:16;;;;;;;41.30;20.97;;;0.60;99.90;;;;;;5051153;28;20256;-60
2020/12/03 18:16:42;;;;;;;51.20;25.53;;;0.60;99.90;;;;;;5051406;28;20198;-60
2020/12/03 18:19:08;;;;;;;64.37;31.17;;;0.60;99.90;;;;;;5050257;28;20657;-60
2020/12/03 18:21:34;;;;;;;57.87;28.07;;;0.60;99.90;;;;;;5050767;28;20610;-60
2020/12/03 18:24:00;;;;;;;57.83;29.90;;;0.60;99.90;;;;;;5049187;28;20177;-61
2020/12/03 18:26:28;;;;;;;54.37;27.47;;;0.60;99.90;;;;;;5051418;28;20276;-60
2020/12/03 18:28:54;;;;;;;58.73;29.27;;;0.50;99.90;;;;;;5050944;28;20201;-61
2020/12/03 18:31:20;;;;;;;47.43;23.30;;;0.40;99.90;;;;;;5050272;28;20316;-59
2020/12/03 18:33:46;;;;;;;46.50;24.13;;;0.40;99.90;;;;;;5050004;28;20722;-66
2020/12/03 18:36:12;;;;;;;54.83;27.87;;;0.30;99.90;;;;;;5046187;28;20245;-65
2020/12/03 18:38:39;;;;;;;54.10;27.13;;;0.30;99.90;;;;;;5049050;28;20182;-66
2020/12/03 18:41:07;;;;;;;40.97;20.93;;;0.30;99.90;;;;;;5048696;28;20304;-68
2020/12/03 18:43:34;;;;;;;56.53;29.57;;;0.30;99.90;;;;;;5047786;28;20304;-67
2020/12/03 18:46:00;;;;;;;47.33;24.97;;;0.30;99.90;;;;;;5047922;28;20194;-67
2020/12/03 18:48:26;;;;;;;55.43;27.17;;;0.40;99.90;;;;;;5048603;28;20177;-68
2020/12/03 18:50:51;;;;;;;52.20;28.00;;;0.40;99.90;;;;;;5047399;28;20616;-68
2020/12/03 18:53:17;;;;;;;50.73;26.63;;;0.40;99.90;;;;;;5049016;28;20178;-68
2020/12/03 18:55:45;;;;;;;32.50;18.27;;;0.50;99.90;;;;;;5047055;28;20205;-66
2020/12/03 18:58:11;;;;;;;44.23;23.93;;;0.40;99.90;;;;;;5046443;28;20189;-66
2020/12/03 19:00:36;;;;;;;47.23;23.87;;;0.50;99.90;;;;;;5047058;28;20185;-62
2020/12/03 19:03:04;;;;;;;47.03;24.07;;;0.50;99.90;;;;;;5046396;28;20190;-64
2020/12/03 19:05:35;;;;;;;50.83;25.13;;;0.60;99.90;;;;;;5045843;28;20719;-61
2020/12/03 19:08:02;;;;;;;41.23;21.20;;;0.60;99.90;;;;;;5048556;28;20180;-63
2020/12/03 19:10:28;;;;;;;48.30;24.87;;;0.60;99.90;;;;;;5046196;28;20194;-62
2020/12/03 19:12:55;;;;;;;34.77;17.73;;;0.60;99.90;;;;;;5048594;28;20170;-61
2020/12/03 19:15:21;;;;;;;41.10;20.70;;;0.60;99.90;;;;;;5047438;28;20198;-62
2020/12/03 19:17:46;;;;;;;30.33;17.27;;;0.70;99.90;;;;;;5047022;28;20182;-61
2020/12/03 19:20:11;;;;;;;39.03;20.80;;;0.70;99.90;;;;;;5048596;28;20189;-59
2020/12/03 19:22:37;;;;;;;37.03;18.37;;;0.70;99.90;;;;;;5047842;28;20257;-59
2020/12/03 19:25:03;;;;;;;56.60;29.70;;;0.70;99.90;;;;;;5047178;28;20208;-60
2020/12/03 19:27:28;;;;;;;43.57;24.40;;;0.70;99.90;;;;;;5047175;28;20217;-60
2020/12/03 19:29:54;;;;;;;40.97;20.47;;;0.70;99.90;;;;;;5047753;28;20292;-60
2020/12/03 19:32:19;;;;;;;39.03;20.70;;;0.70;99.90;;;;;;5047799;28;20240;-59
2020/12/03 19:34:45;;;;;;;39.60;18.83;;;0.80;99.90;;;;;;5047013;28;20614;-73
2020/12/03 19:37:10;;;;;;;34.87;18.77;;;0.80;99.90;;;;;;5047419;28;20185;-76
2020/12/03 19:39:36;;;;;;;42.90;22.50;;;0.70;99.90;;;;;;5049785;28;20202;-71
2020/12/03 19:42:01;;;;;;;55.43;27.80;;;0.70;99.90;;;;;;5048838;28;20226;-70
2020/12/03 19:44:27;;;;;;;32.10;16.07;;;0.70;99.90;;;;;;5046646;28;20549;-64
2020/12/03 19:46:52;;;;;;;47.00;24.77;;;0.80;99.90;;;;;;5046761;28;20246;-77
2020/12/03 19:49:18;;;;;;;52.73;27.57;;;0.80;99.90;;;;;;5049526;28;20174;-72
2020/12/03 19:51:43;;;;;;;36.67;19.03;;;0.80;99.90;;;;;;5047394;28;20703;-70
2020/12/03 19:54:09;;;;;;;45.23;20.10;;;0.80;99.90;;;;;;5047084;28;20197;-71
2020/12/03 19:56:34;;;;;;;38.87;16.87;;;0.70;99.90;;;;;;5046242;28;20586;-71
2020/12/03 19:59:00;;;;;;;36.73;19.27;;;0.70;99.90;;;;;;5047144;28;20178;-71
2020/12/03 20:01:26;;;;;;;36.53;19.03;;;0.80;99.90;;;;;;5046720;28;20209;-68
2020/12/03 20:03:51;;;;;;;48.40;26.37;;;0.80;99.90;;;;;;5045672;28;20186;-70
2020/12/03 20:06:16;;;;;;;36.93;20.53;;;0.80;99.90;;;;;;5045178;28;20213;-71
2020/12/03 20:08:42;;;;;;;31.77;17.83;;;0.80;99.90;;;;;;5046779;28;20189;-66
2020/12/03 20:11:09;;;;;;;43.57;22.07;;;0.80;99.90;;;;;;5044118;28;20204;-66
2020/12/03 20:13:36;;;;;;;40.37;21.87;;;0.90;99.90;;;;;;5049753;28;20228;-66
2020/12/03 20:16:03;;;;;;;36.00;18.33;;;0.80;99.90;;;;;;5051397;28;20632;-66
2020/12/03 20:18:29;;;;;;;30.20;15.80;;;0.90;99.90;;;;;;5050663;28;20684;-66
2020/12/03 20:20:54;;;;;;;51.40;31.83;;;0.90;99.90;;;;;;5050561;28;20166;-68
2020/12/03 20:23:20;;;;;;;45.60;23.40;;;0.90;99.90;;;;;;5051982;28;20209;-67
2020/12/03 20:25:45;;;;;;;38.67;21.00;;;0.80;99.90;;;;;;5051600;28;20190;-72
2020/12/03 20:28:11;;;;;;;32.83;16.53;;;0.90;99.90;;;;;;5031852;28;20185;-61
2020/12/03 20:30:37;;;;;;;33.00;15.80;;;0.90;99.90;;;;;;5049715;28;20292;-60
2020/12/03 20:33:02;;;;;;;39.33;22.47;;;0.90;99.90;;;;;;5050338;28;20186;-65
2020/12/03 20:35:28;;;;;;;34.10;19.13;;;0.90;99.90;;;;;;5051357;28;20729;-60
2020/12/03 20:37:53;;;;;;;47.27;24.97;;;0.90;99.90;;;;;;5049411;28;20268;-61
2020/12/03 20:40:20;;;;;;;37.77;22.90;;;0.90;99.90;;;;;;5049784;28;20182;-63
2020/12/03 20:42:45;;;;;;;50.93;28.63;;;0.90;99.90;;;;;;5032348;28;20178;-60
2020/12/03 20:45:11;;;;;;;40.00;24.67;;;0.90;99.90;;;;;;5050444;28;20235;-61
2020/12/03 20:47:36;;;;;;;51.83;28.30;;;0.90;99.90;;;;;;5048432;28;20178;-63
2020/12/03 20:50:03;;;;;;;48.83;26.70;;;0.90;99.90;;;;;;5050045;28;20194;-61
2020/12/03 20:52:28;;;;;;;25.40;13.93;;;0.90;99.90;;;;;;5050366;28;20546;-60
2020/12/03 20:54:53;;;;;;;35.87;18.57;;;0.80;99.90;;;;;;5049272;28;20205;-60
2020/12/03 20:57:21;;;;;;;42.87;22.63;;;0.80;99.90;;;;;;5048923;28;20523;-59
2020/12/03 20:59:46;;;;;;;33.90;17.03;;;0.80;99.90;;;;;;5050892;28;20181;-61
2020/12/03 21:02:12;;;;;;;47.80;26.10;;;0.80;99.90;;;;;;5049989;28;20173;-61
2020/12/03 21:04:37;;;;;;;25.93;14.10;;;0.80;99.90;;;;;;5049908;28;20185;-78
2020/12/03 21:07:03;;;;;;;50.47;24.37;;;0.70;99.90;;;;;;5050604;28;20541;-67
2020/12/03 21:09:28;;;;;;;35.63;17.60;;;0.70;99.90;;;;;;5049988;28;20178;-63
2020/12/03 21:11:53;;;;;;;39.53;22.93;;;0.70;99.90;;;;;;5048945;28;20211;-61
2020/12/03 21:14:19;;;;;;;30.50;16.00;;;0.60;99.90;;;;;;5051291;28;20642;-73
2020/12/03 21:16:44;;;;;;;47.40;26.27;;;0.60;99.90;;;;;;5051715;28;20607;-61
2020/12/03 21:19:10;;;;;;;41.77;25.30;;;0.60;99.90;;;;;;5048353;28;20628;-62
2020/12/03 21:21:36;;;;;;;41.93;22.30;;;0.60;99.90;;;;;;5049468;28;20253;-60
2020/12/03 21:24:02;;;;;;;46.33;24.93;;;0.60;99.90;;;;;;5048037;28;20186;-61
2020/12/03 21:26:28;;;;;;;43.30;22.70;;;0.60;99.90;;;;;;5050268;28;20193;-60
2020/12/03 21:28:53;;;;;;;34.37;19.50;;;0.60;99.90;;;;;;5049536;28;20261;-62
2020/12/03 21:31:26;;;;;;;54.30;27.40;;;0.70;99.90;;;;;;5049032;28;20528;-61
2020/12/03 21:33:52;;;;;;;42.90;19.07;;;0.60;99.90;;;;;;5049841;28;20174;-62
2020/12/03 21:36:21;;;;;;;45.97;23.20;;;0.60;99.90;;;;;;5049405;28;20292;-62
2020/12/03 21:38:47;;;;;;;46.27;26.33;;;0.60;99.90;;;;;;5049584;28;20208;-60
2020/12/03 21:41:20;;;;;;;28.80;14.23;;;0.60;99.90;;;;;;5049092;28;20554;-61
2020/12/03 21:43:47;;;;;;;38.27;22.00;;;0.60;99.90;;;;;;5049515;28;20223;-61
2020/12/03 21:46:14;;;;;;;26.70;15.87;;;0.60;99.90;;;;;;5050497;28;20197;-61
2020/12/03 21:48:39;;;;;;;39.77;20.77;;;0.60;99.90;;;;;;5050055;28;20173;-61
2020/12/03 21:51:05;;;;;;;41.87;23.27;;;0.60;99.90;;;;;;5031150;28;20209;-61
2020/12/03 21:53:30;;;;;;;44.13;22.50;;;0.60;99.90;;;;;;5049535;28;20231;-61
2020/12/03 21:55:56;;;;;;;48.37;27.63;;;0.60;99.90;;;;;;5047485;28;20264;-60
2020/12/03 21:58:21;;;;;;;51.73;26.40;;;0.60;99.90;;;;;;5050183;28;20186;-61
2020/12/03 22:00:47;;;;;;;46.93;22.70;;;0.60;99.90;;;;;;5049109;28;20257;-60
2020/12/03 22:03:12;;;;;;;44.23;23.73;;;0.60;99.90;;;;;;5049008;28;20687;-60
2020/12/03 22:05:38;;;;;;;44.67;25.13;;;0.60;99.90;;;;;;5048047;28;20209;-59
2020/12/03 22:08:03;;;;;;;16.40;9.87;;;0.60;99.90;;;;;;5049719;28;20724;-59
2020/12/03 22:10:29;;;;;;;37.43;20.67;;;0.60;99.90;;;;;;5045651;28;20224;-60
2020/12/03 22:12:54;;;;;;;46.50;24.17;;;0.60;99.90;;;;;;5049356;28;20177;-60
2020/12/03 22:15:19;;;;;;;41.17;21.40;;;0.60;99.90;;;;;;5049502;28;20323;-59
2020/12/03 22:17:45;;;;;;;23.10;11.90;;;0.60;99.90;;;;;;5047348;28;20665;-60
2020/12/03 22:20:11;;;;;;;33.17;16.63;;;0.60;99.90;;;;;;5048486;28;20213;-60
2020/12/03 22:22:36;;;;;;;39.10;24.07;;;0.60;99.90;;;;;;5048939;28;20174;-59
2020/12/03 22:25:02;;;;;;;23.70;14.33;;;0.70;99.90;;;;;;5048574;28;20649;-59
2020/12/03 22:27:27;;;;;;;34.23;17.13;;;0.70;99.90;;;;;;5049242;28;20174;-60
2020/12/03 22:29:53;;;;;;;44.13;23.67;;;0.70;99.90;;;;;;5046000;28;20201;-60
2020/12/03 22:32:18;;;;;;;41.33;19.83;;;0.70;99.90;;;;;;5048860;28;20188;-60
2020/12/03 22:34:44;;;;;;;42.03;21.60;;;0.70;99.90;;;;;;5047472;28;20653;-60
2020/12/03 22:37:09;;;;;;;29.60;15.37;;;0.70;99.90;;;;;;5047196;28;20177;-61
2020/12/03 22:39:35;;;;;;;32.50;16.17;;;0.80;99.90;;;;;;5048785;28;20182;-61
2020/12/03 22:42:01;;;;;;;47.20;26.77;;;0.80;99.90;;;;;;5047178;28;20605;-60
2020/12/03 22:44:27;;;;;;;37.50;20.43;;;0.70;99.90;;;;;;5048146;28;20178;-61
2020/12/03 22:46:52;;;;;;;42.30;24.17;;;0.70;99.90;;;;;;5047926;28;20581;-62